sensor_id;sensor_type;location;lat;lon;timestamp;pressure;altitude;pressure_sealevel;temperature;humidity
49529;BME280;35423;37.320;-121.762;2022-08-01T00:01:55;99823.96;;;42.41;13.09
49529;BME280;35423;37.320;-121.762;2022-08-01T00:04:23;99818.12;;;42.56;13.17
49529;BME280;35423;37.320;-121.762;2022-08-01T00:06:48;99813.28;;;41.83;13.25
49529;BME280;35423;37.320;-121.762;2022-08-01T00:09:17;99817.12;;;42.08;13.47
49529;BME280;35423;37.320;-121.762;2022-08-01T00:11:44;99817.68;;;41.84;13.62
49529;BME280;35423;37.320;-121.762;2022-08-01T00:14:10;99818.14;;;41.70;13.67
49529;BME280;35423;37.320;-121.762;2022-08-01T00:16:36;99818.42;;;41.60;13.74
49529;BME280;35423;37.320;-121.762;2022-08-01T00:19:01;99825.39;;;41.49;13.89
49529;BME280;35423;37.320;-121.762;2022-08-01T00:21:29;99825.18;;;41.38;14.01
49529;BME280;35423;37.320;-121.762;2022-08-01T00:24:01;99818.86;;;41.10;14.19
49529;BME280;35423;37.320;-121.762;2022-08-01T00:26:27;99819.17;;;40.92;14.26
49529;BME280;35423;37.320;-121.762;2022-08-01T00:28:56;99817.63;;;40.96;14.37
49529;BME280;35423;37.320;-121.762;2022-08-01T00:31:24;99817.61;;;40.57;14.45
49529;BME280;35423;37.320;-121.762;2022-08-01T00:34:00;99820.63;;;40.87;14.57
49529;BME280;35423;37.320;-121.762;2022-08-01T00:36:28;99821.89;;;40.21;14.71
49529;BME280;35423;37.320;-121.762;2022-08-01T00:38:56;99821.18;;;40.56;14.79
49529;BME280;35423;37.320;-121.762;2022-08-01T00:41:24;99821.61;;;40.39;14.88
49529;BME280;35423;37.320;-121.762;2022-08-01T00:43:50;99820.26;;;40.22;14.97
49529;BME280;35423;37.320;-121.762;2022-08-01T00:46:15;99822.36;;;39.94;15.16
49529;BME280;35423;37.320;-121.762;2022-08-01T00:48:41;99820.06;;;39.69;15.32
49529;BME280;35423;37.320;-121.762;2022-08-01T00:51:09;99818.83;;;39.54;15.45
49529;BME280;35423;37.320;-121.762;2022-08-01T00:53:37;99820.45;;;39.23;15.60
49529;BME280;35423;37.320;-121.762;2022-08-01T00:56:05;99818.36;;;38.98;15.76
49529;BME280;35423;37.320;-121.762;2022-08-01T00:58:32;99821.90;;;38.58;15.86
49529;BME280;35423;37.320;-121.762;2022-08-01T01:00:57;99822.62;;;38.82;16.03
49529;BME280;35423;37.320;-121.762;2022-08-01T01:03:30;99825.16;;;38.66;16.16
49529;BME280;35423;37.320;-121.762;2022-08-01T01:06:07;99822.50;;;38.64;16.32
49529;BME280;35423;37.320;-121.762;2022-08-01T01:08:30;99823.67;;;38.64;16.33
49529;BME280;35423;37.320;-121.762;2022-08-01T01:10:57;99828.10;;;38.30;16.48
49529;BME280;35423;37.320;-121.762;2022-08-01T01:13:20;99834.63;;;37.91;16.73
49529;BME280;35423;37.320;-121.762;2022-08-01T01:15:46;99834.56;;;37.72;16.86
49529;BME280;35423;37.320;-121.762;2022-08-01T01:18:11;99834.46;;;37.48;17.00
49529;BME280;35423;37.320;-121.762;2022-08-01T01:20:36;99831.17;;;37.39;17.22
49529;BME280;35423;37.320;-121.762;2022-08-01T01:25:39;99828.43;;;37.02;17.30
49529;BME280;35423;37.320;-121.762;2022-08-01T01:28:00;99829.36;;;36.80;17.44
49529;BME280;35423;37.320;-121.762;2022-08-01T01:30:17;99829.91;;;36.96;17.50
49529;BME280;35423;37.320;-121.762;2022-08-01T01:32:44;99829.40;;;36.87;17.52
49529;BME280;35423;37.320;-121.762;2022-08-01T01:35:15;99826.49;;;36.96;17.66
49529;BME280;35423;37.320;-121.762;2022-08-01T01:37:39;99824.69;;;36.69;17.77
49529;BME280;35423;37.320;-121.762;2022-08-01T01:40:05;99824.87;;;36.63;17.83
49529;BME280;35423;37.320;-121.762;2022-08-01T01:42:31;99824.15;;;36.45;17.93
49529;BME280;35423;37.320;-121.762;2022-08-01T01:44:56;99828.03;;;36.34;18.00
49529;BME280;35423;37.320;-121.762;2022-08-01T01:47:25;99831.44;;;36.35;18.10
49529;BME280;35423;37.320;-121.762;2022-08-01T01:49:54;99832.58;;;35.52;18.37
49529;BME280;35423;37.320;-121.762;2022-08-01T01:52:21;99829.96;;;35.83;18.49
49529;BME280;35423;37.320;-121.762;2022-08-01T01:54:48;99834.49;;;35.53;18.50
49529;BME280;35423;37.320;-121.762;2022-08-01T01:57:13;99836.74;;;35.62;18.60
49529;BME280;35423;37.320;-121.762;2022-08-01T01:59:46;99839.11;;;35.52;18.70
49529;BME280;35423;37.320;-121.762;2022-08-01T02:02:07;99841.13;;;35.77;18.70
49529;BME280;35423;37.320;-121.762;2022-08-01T02:04:34;99843.82;;;35.80;18.69
49529;BME280;35423;37.320;-121.762;2022-08-01T02:07:01;99846.52;;;35.50;18.84
49529;BME280;35423;37.320;-121.762;2022-08-01T02:09:27;99846.13;;;35.33;18.97
49529;BME280;35423;37.320;-121.762;2022-08-01T02:11:51;99848.90;;;35.05;19.07
49529;BME280;35423;37.320;-121.762;2022-08-01T02:14:20;99852.74;;;34.67;19.29
49529;BME280;35423;37.320;-121.762;2022-08-01T02:16:49;99856.32;;;34.73;19.23
49529;BME280;35423;37.320;-121.762;2022-08-01T02:19:12;99862.08;;;34.55;19.38
49529;BME280;35423;37.320;-121.762;2022-08-01T02:21:40;99864.15;;;34.69;19.63
49529;BME280;35423;37.320;-121.762;2022-08-01T02:24:11;99867.36;;;34.40;19.78
49529;BME280;35423;37.320;-121.762;2022-08-01T02:26:31;99872.23;;;34.28;19.91
49529;BME280;35423;37.320;-121.762;2022-08-01T02:29:06;99867.77;;;33.96;19.98
49529;BME280;35423;37.320;-121.762;2022-08-01T02:31:26;99873.65;;;33.47;20.14
49529;BME280;35423;37.320;-121.762;2022-08-01T02:33:58;99876.30;;;33.64;20.17
49529;BME280;35423;37.320;-121.762;2022-08-01T02:36:25;99877.46;;;33.76;20.25
49529;BME280;35423;37.320;-121.762;2022-08-01T02:38:48;99877.50;;;33.66;20.32
49529;BME280;35423;37.320;-121.762;2022-08-01T02:41:24;99875.91;;;33.59;20.40
49529;BME280;35423;37.320;-121.762;2022-08-01T02:43:58;99875.41;;;33.41;20.56
49529;BME280;35423;37.320;-121.762;2022-08-01T02:46:17;99873.72;;;33.23;20.67
49529;BME280;35423;37.320;-121.762;2022-08-01T02:48:42;99875.18;;;33.63;20.71
49529;BME280;35423;37.320;-121.762;2022-08-01T02:51:11;99875.44;;;32.91;20.85
49529;BME280;35423;37.320;-121.762;2022-08-01T02:53:40;99872.03;;;32.80;20.92
49529;BME280;35423;37.320;-121.762;2022-08-01T02:56:08;99873.15;;;32.49;21.15
49529;BME280;35423;37.320;-121.762;2022-08-01T02:58:36;99871.03;;;32.73;21.15
49529;BME280;35423;37.320;-121.762;2022-08-01T03:01:04;99868.85;;;32.69;21.33
49529;BME280;35423;37.320;-121.762;2022-08-01T03:03:39;99870.31;;;32.28;21.46
49529;BME280;35423;37.320;-121.762;2022-08-01T03:06:05;99871.30;;;32.38;21.57
49529;BME280;35423;37.320;-121.762;2022-08-01T03:08:31;99867.67;;;32.25;21.66
49529;BME280;35423;37.320;-121.762;2022-08-01T03:11:02;99872.11;;;32.12;21.77
49529;BME280;35423;37.320;-121.762;2022-08-01T03:13:28;99873.45;;;31.79;21.88
49529;BME280;35423;37.320;-121.762;2022-08-01T03:15:55;99876.68;;;31.92;21.93
49529;BME280;35423;37.320;-121.762;2022-08-01T03:18:21;99877.65;;;31.87;22.00
49529;BME280;35423;37.320;-121.762;2022-08-01T03:20:55;99875.93;;;31.73;22.10
49529;BME280;35423;37.320;-121.762;2022-08-01T03:23:22;99872.98;;;31.84;22.03
49529;BME280;35423;37.320;-121.762;2022-08-01T03:25:52;99877.32;;;31.70;22.12
49529;BME280;35423;37.320;-121.762;2022-08-01T03:28:19;99880.47;;;31.97;22.10
49529;BME280;35423;37.320;-121.762;2022-08-01T03:30:45;99882.88;;;32.04;22.24
49529;BME280;35423;37.320;-121.762;2022-08-01T03:33:12;99883.36;;;31.73;22.24
49529;BME280;35423;37.320;-121.762;2022-08-01T03:35:42;99884.07;;;31.73;22.23
49529;BME280;35423;37.320;-121.762;2022-08-01T03:38:06;99886.02;;;31.35;22.19
49529;BME280;35423;37.320;-121.762;2022-08-01T03:40:35;99883.19;;;31.80;22.16
49529;BME280;35423;37.320;-121.762;2022-08-01T03:43:02;99883.02;;;31.92;22.30
49529;BME280;35423;37.320;-121.762;2022-08-01T03:45:29;99890.66;;;31.75;22.45
49529;BME280;35423;37.320;-121.762;2022-08-01T03:48:04;99899.77;;;31.31;22.57
49529;BME280;35423;37.320;-121.762;2022-08-01T03:50:31;99901.06;;;31.50;22.61
49529;BME280;35423;37.320;-121.762;2022-08-01T03:52:59;99903.77;;;31.13;22.70
49529;BME280;35423;37.320;-121.762;2022-08-01T03:55:29;99905.33;;;31.21;22.81
49529;BME280;35423;37.320;-121.762;2022-08-01T03:57:55;99907.87;;;31.07;22.90
49529;BME280;35423;37.320;-121.762;2022-08-01T04:00:22;99907.34;;;31.01;22.96
49529;BME280;35423;37.320;-121.762;2022-08-01T04:02:49;99907.97;;;30.86;23.07
49529;BME280;35423;37.320;-121.762;2022-08-01T04:05:19;99909.52;;;30.76;23.15
49529;BME280;35423;37.320;-121.762;2022-08-01T04:07:47;99909.12;;;30.86;23.23
49529;BME280;35423;37.320;-121.762;2022-08-01T04:10:13;99907.15;;;30.74;23.36
49529;BME280;35423;37.320;-121.762;2022-08-01T04:12:39;99913.68;;;30.67;23.41
49529;BME280;35423;37.320;-121.762;2022-08-01T04:15:12;99921.45;;;30.43;23.41
49529;BME280;35423;37.320;-121.762;2022-08-01T04:17:38;99927.60;;;30.87;23.45
49529;BME280;35423;37.320;-121.762;2022-08-01T04:20:11;99932.75;;;30.54;23.53
49529;BME280;35423;37.320;-121.762;2022-08-01T04:22:34;99941.62;;;30.41;23.65
49529;BME280;35423;37.320;-121.762;2022-08-01T04:25:11;99947.18;;;30.58;23.73
49529;BME280;35423;37.320;-121.762;2022-08-01T04:27:36;99951.51;;;30.22;23.88
49529;BME280;35423;37.320;-121.762;2022-08-01T04:29:59;99953.78;;;30.38;23.92
49529;BME280;35423;37.320;-121.762;2022-08-01T04:32:29;99952.38;;;30.22;24.07
49529;BME280;35423;37.320;-121.762;2022-08-01T04:34:59;99956.63;;;30.15;24.14
49529;BME280;35423;37.320;-121.762;2022-08-01T04:37:24;99961.10;;;30.11;24.21
49529;BME280;35423;37.320;-121.762;2022-08-01T04:39:52;99960.00;;;30.00;24.28
49529;BME280;35423;37.320;-121.762;2022-08-01T04:42:17;99960.34;;;29.64;24.37
49529;BME280;35423;37.320;-121.762;2022-08-01T04:44:45;99958.83;;;29.92;24.37
49529;BME280;35423;37.320;-121.762;2022-08-01T04:47:11;99958.45;;;29.88;24.37
49529;BME280;35423;37.320;-121.762;2022-08-01T04:49:37;99959.06;;;29.87;24.37
49529;BME280;35423;37.320;-121.762;2022-08-01T04:52:03;99963.44;;;30.22;24.44
49529;BME280;35423;37.320;-121.762;2022-08-01T04:54:30;99964.57;;;29.58;24.37
49529;BME280;35423;37.320;-121.762;2022-08-01T04:56:56;99969.99;;;29.72;24.47
49529;BME280;35423;37.320;-121.762;2022-08-01T04:59:31;99973.61;;;29.51;24.60
49529;BME280;35423;37.320;-121.762;2022-08-01T05:02:05;99977.07;;;30.00;24.59
49529;BME280;35423;37.320;-121.762;2022-08-01T05:04:31;99977.82;;;29.38;24.70
49529;BME280;35423;37.320;-121.762;2022-08-01T05:06:59;99979.46;;;29.58;24.74
49529;BME280;35423;37.320;-121.762;2022-08-01T05:09:28;99984.65;;;29.66;24.80
49529;BME280;35423;37.320;-121.762;2022-08-01T05:12:00;99998.66;;;29.59;24.85
49529;BME280;35423;37.320;-121.762;2022-08-01T05:14:31;100008.19;;;29.65;24.82
49529;BME280;35423;37.320;-121.762;2022-08-01T05:17:01;100011.36;;;29.56;24.89
49529;BME280;35423;37.320;-121.762;2022-08-01T05:19:32;100010.65;;;29.15;25.03
49529;BME280;35423;37.320;-121.762;2022-08-01T05:21:58;100005.29;;;29.30;25.08
49529;BME280;35423;37.320;-121.762;2022-08-01T05:24:25;100006.16;;;29.23;25.16
49529;BME280;35423;37.320;-121.762;2022-08-01T05:26:51;100005.62;;;29.16;25.23
49529;BME280;35423;37.320;-121.762;2022-08-01T05:29:19;100000.65;;;29.11;25.25
49529;BME280;35423;37.320;-121.762;2022-08-01T05:31:56;100004.91;;;28.99;25.37
49529;BME280;35423;37.320;-121.762;2022-08-01T05:34:26;100007.97;;;28.70;25.46
49529;BME280;35423;37.320;-121.762;2022-08-01T05:36:52;100008.23;;;28.91;25.52
49529;BME280;35423;37.320;-121.762;2022-08-01T05:39:18;100008.47;;;28.84;25.57
49529;BME280;35423;37.320;-121.762;2022-08-01T05:41:45;100010.95;;;28.77;25.62
49529;BME280;35423;37.320;-121.762;2022-08-01T05:44:11;100012.34;;;28.66;25.71
49529;BME280;35423;37.320;-121.762;2022-08-01T05:46:39;100014.68;;;28.61;25.71
49529;BME280;35423;37.320;-121.762;2022-08-01T05:49:05;100017.28;;;28.57;25.78
49529;BME280;35423;37.320;-121.762;2022-08-01T05:51:40;100016.83;;;29.03;25.84
49529;BME280;35423;37.320;-121.762;2022-08-01T05:54:06;100016.79;;;28.68;25.90
49529;BME280;35423;37.320;-121.762;2022-08-01T05:56:37;100016.51;;;28.32;25.97
49529;BME280;35423;37.320;-121.762;2022-08-01T05:59:04;100016.08;;;28.78;25.99
49529;BME280;35423;37.320;-121.762;2022-08-01T06:01:30;100011.45;;;28.20;26.06
49529;BME280;35423;37.320;-121.762;2022-08-01T06:03:58;100010.92;;;28.20;26.05
49529;BME280;35423;37.320;-121.762;2022-08-01T06:06:26;100015.52;;;28.11;26.12
49529;BME280;35423;37.320;-121.762;2022-08-01T06:08:53;100020.48;;;28.00;26.24
49529;BME280;35423;37.320;-121.762;2022-08-01T06:11:18;100021.19;;;28.52;26.24
49529;BME280;35423;37.320;-121.762;2022-08-01T06:13:43;100023.57;;;28.46;26.28
49529;BME280;35423;37.320;-121.762;2022-08-01T06:16:09;100026.65;;;28.15;26.36
49529;BME280;35423;37.320;-121.762;2022-08-01T06:18:36;100027.81;;;27.88;26.37
49529;BME280;35423;37.320;-121.762;2022-08-01T06:21:05;100027.42;;;28.29;26.29
49529;BME280;35423;37.320;-121.762;2022-08-01T06:23:35;100028.41;;;27.89;26.38
49529;BME280;35423;37.320;-121.762;2022-08-01T06:26:03;100025.90;;;27.97;26.53
49529;BME280;35423;37.320;-121.762;2022-08-01T06:28:31;100021.93;;;28.00;26.43
49529;BME280;35423;37.320;-121.762;2022-08-01T06:31:00;100021.40;;;27.92;26.61
49529;BME280;35423;37.320;-121.762;2022-08-01T06:33:27;100018.28;;;27.73;26.84
49529;BME280;35423;37.320;-121.762;2022-08-01T06:35:53;100020.45;;;27.84;27.02
49529;BME280;35423;37.320;-121.762;2022-08-01T06:38:18;100019.85;;;27.73;27.18
49529;BME280;35423;37.320;-121.762;2022-08-01T06:40:50;100020.41;;;27.57;27.32
49529;BME280;35423;37.320;-121.762;2022-08-01T06:43:16;100019.23;;;27.44;27.45
49529;BME280;35423;37.320;-121.762;2022-08-01T06:45:41;100019.52;;;27.59;27.54
49529;BME280;35423;37.320;-121.762;2022-08-01T06:48:07;100020.47;;;27.30;27.63
49529;BME280;35423;37.320;-121.762;2022-08-01T06:50:33;100016.74;;;27.27;27.69
49529;BME280;35423;37.320;-121.762;2022-08-01T06:53:00;100016.09;;;27.49;27.72
49529;BME280;35423;37.320;-121.762;2022-08-01T06:55:27;100010.19;;;27.37;27.80
49529;BME280;35423;37.320;-121.762;2022-08-01T06:57:54;100009.17;;;27.13;27.83
49529;BME280;35423;37.320;-121.762;2022-08-01T07:00:24;100008.29;;;27.53;27.90
49529;BME280;35423;37.320;-121.762;2022-08-01T07:02:48;100005.09;;;27.07;27.91
49529;BME280;35423;37.320;-121.762;2022-08-01T07:05:13;100005.87;;;26.94;27.99
49529;BME280;35423;37.320;-121.762;2022-08-01T07:07:51;100004.98;;;27.10;28.05
49529;BME280;35423;37.320;-121.762;2022-08-01T07:10:18;100003.77;;;26.81;28.09
49529;BME280;35423;37.320;-121.762;2022-08-01T07:12:45;100003.97;;;26.87;28.32
49529;BME280;35423;37.320;-121.762;2022-08-01T07:15:15;100004.02;;;27.06;28.41
49529;BME280;35423;37.320;-121.762;2022-08-01T07:17:47;99998.70;;;26.63;28.43
49529;BME280;35423;37.320;-121.762;2022-08-01T07:20:15;99996.36;;;26.83;28.50
49529;BME280;35423;37.320;-121.762;2022-08-01T07:22:44;99998.26;;;26.98;28.63
49529;BME280;35423;37.320;-121.762;2022-08-01T07:25:10;99999.27;;;26.95;28.77
49529;BME280;35423;37.320;-121.762;2022-08-01T07:27:36;99999.10;;;26.95;28.80
49529;BME280;35423;37.320;-121.762;2022-08-01T07:30:08;99991.06;;;26.72;29.03
49529;BME280;35423;37.320;-121.762;2022-08-01T07:32:41;99985.55;;;26.14;29.21
49529;BME280;35423;37.320;-121.762;2022-08-01T07:35:07;99981.30;;;26.61;29.33
49529;BME280;35423;37.320;-121.762;2022-08-01T07:37:31;99978.26;;;26.51;29.44
49529;BME280;35423;37.320;-121.762;2022-08-01T07:40:00;99977.88;;;26.48;29.49
49529;BME280;35423;37.320;-121.762;2022-08-01T07:42:25;99973.50;;;26.43;29.58
49529;BME280;35423;37.320;-121.762;2022-08-01T07:44:50;99974.57;;;26.35;29.76
49529;BME280;35423;37.320;-121.762;2022-08-01T07:47:23;99970.98;;;26.55;29.84
49529;BME280;35423;37.320;-121.762;2022-08-01T07:49:44;99968.77;;;26.32;29.87
49529;BME280;35423;37.320;-121.762;2022-08-01T07:52:11;99969.89;;;26.44;30.02
49529;BME280;35423;37.320;-121.762;2022-08-01T07:54:38;99965.14;;;26.43;30.05
49529;BME280;35423;37.320;-121.762;2022-08-01T07:57:19;99958.90;;;26.30;30.18
49529;BME280;35423;37.320;-121.762;2022-08-01T07:59:44;99958.54;;;25.97;30.31
49529;BME280;35423;37.320;-121.762;2022-08-01T08:02:09;99958.79;;;26.17;30.38
49529;BME280;35423;37.320;-121.762;2022-08-01T08:04:35;99960.15;;;25.91;30.45
49529;BME280;35423;37.320;-121.762;2022-08-01T08:07:01;99961.58;;;26.13;30.50
49529;BME280;35423;37.320;-121.762;2022-08-01T08:09:29;99959.69;;;25.79;30.58
49529;BME280;35423;37.320;-121.762;2022-08-01T08:12:01;99954.96;;;26.03;30.64
49529;BME280;35423;37.320;-121.762;2022-08-01T08:14:33;99951.48;;;25.77;30.63
49529;BME280;35423;37.320;-121.762;2022-08-01T08:17:08;99948.99;;;26.28;30.66
49529;BME280;35423;37.320;-121.762;2022-08-01T08:19:34;99947.69;;;25.69;30.76
49529;BME280;35423;37.320;-121.762;2022-08-01T08:21:59;99947.49;;;25.95;30.68
49529;BME280;35423;37.320;-121.762;2022-08-01T08:24:26;99948.67;;;25.90;30.86
49529;BME280;35423;37.320;-121.762;2022-08-01T08:26:59;99948.97;;;25.86;30.85
49529;BME280;35423;37.320;-121.762;2022-08-01T08:29:26;99948.45;;;25.59;30.94
49529;BME280;35423;37.320;-121.762;2022-08-01T08:31:56;99947.82;;;25.61;30.98
49529;BME280;35423;37.320;-121.762;2022-08-01T08:34:23;99945.36;;;26.02;31.00
49529;BME280;35423;37.320;-121.762;2022-08-01T08:36:48;99945.36;;;25.95;31.06
49529;BME280;35423;37.320;-121.762;2022-08-01T08:39:15;99948.35;;;25.62;31.14
49529;BME280;35423;37.320;-121.762;2022-08-01T08:41:44;99950.24;;;25.57;31.17
49529;BME280;35423;37.320;-121.762;2022-08-01T08:44:10;99951.87;;;25.76;31.31
49529;BME280;35423;37.320;-121.762;2022-08-01T08:46:41;99957.71;;;25.60;31.45
49529;BME280;35423;37.320;-121.762;2022-08-01T08:49:02;99964.60;;;25.48;31.58
49529;BME280;35423;37.320;-121.762;2022-08-01T08:51:31;99959.94;;;25.37;31.69
49529;BME280;35423;37.320;-121.762;2022-08-01T08:54:03;99957.13;;;25.33;31.83
49529;BME280;35423;37.320;-121.762;2022-08-01T08:56:27;99962.64;;;25.26;31.95
49529;BME280;35423;37.320;-121.762;2022-08-01T08:58:53;99967.13;;;25.09;32.03
49529;BME280;35423;37.320;-121.762;2022-08-01T09:01:19;99963.34;;;25.07;32.05
49529;BME280;35423;37.320;-121.762;2022-08-01T09:03:46;99961.15;;;25.03;32.09
49529;BME280;35423;37.320;-121.762;2022-08-01T09:06:12;99960.81;;;25.17;32.20
49529;BME280;35423;37.320;-121.762;2022-08-01T09:08:38;99963.63;;;24.90;32.23
49529;BME280;35423;37.320;-121.762;2022-08-01T09:11:06;99964.34;;;25.25;32.38
49529;BME280;35423;37.320;-121.762;2022-08-01T09:13:32;99965.40;;;24.46;32.42
49529;BME280;35423;37.320;-121.762;2022-08-01T09:15:57;99962.53;;;24.67;32.50
49529;BME280;35423;37.320;-121.762;2022-08-01T09:18:27;99956.98;;;24.86;32.55
49529;BME280;35423;37.320;-121.762;2022-08-01T09:21:09;99952.90;;;25.03;32.58
49529;BME280;35423;37.320;-121.762;2022-08-01T09:23:36;99954.25;;;24.56;32.61
49529;BME280;35423;37.320;-121.762;2022-08-01T09:26:00;99959.46;;;24.77;32.66
49529;BME280;35423;37.320;-121.762;2022-08-01T09:28:29;99967.36;;;24.77;32.72
49529;BME280;35423;37.320;-121.762;2022-08-01T09:30:52;99973.85;;;24.53;32.65
49529;BME280;35423;37.320;-121.762;2022-08-01T09:33:22;99976.66;;;24.70;32.68
49529;BME280;35423;37.320;-121.762;2022-08-01T09:35:54;99977.31;;;24.38;32.83
49529;BME280;35423;37.320;-121.762;2022-08-01T09:38:16;99976.37;;;24.78;32.86
49529;BME280;35423;37.320;-121.762;2022-08-01T09:40:45;99978.21;;;24.53;32.93
49529;BME280;35423;37.320;-121.762;2022-08-01T09:43:12;99978.29;;;24.77;32.94
49529;BME280;35423;37.320;-121.762;2022-08-01T09:45:38;99977.96;;;24.52;32.95
49529;BME280;35423;37.320;-121.762;2022-08-01T09:48:07;99978.84;;;24.69;33.03
49529;BME280;35423;37.320;-121.762;2022-08-01T09:50:38;99978.96;;;24.46;33.10
49529;BME280;35423;37.320;-121.762;2022-08-01T09:52:55;99979.42;;;24.47;33.04
49529;BME280;35423;37.320;-121.762;2022-08-01T09:55:23;99980.10;;;24.71;33.00
49529;BME280;35423;37.320;-121.762;2022-08-01T10:00:18;99985.90;;;24.74;32.98
49529;BME280;35423;37.320;-121.762;2022-08-01T10:02:42;99986.01;;;24.85;32.88
49529;BME280;35423;37.320;-121.762;2022-08-01T10:05:09;99988.51;;;24.74;32.98
49529;BME280;35423;37.320;-121.762;2022-08-01T10:07:35;99985.30;;;24.59;32.91
49529;BME280;35423;37.320;-121.762;2022-08-01T10:10:09;99984.69;;;24.86;32.89
49529;BME280;35423;37.320;-121.762;2022-08-01T10:12:26;99985.68;;;24.39;32.89
49529;BME280;35423;37.320;-121.762;2022-08-01T10:14:53;99985.98;;;24.98;32.77
49529;BME280;35423;37.320;-121.762;2022-08-01T10:17:20;99981.83;;;24.86;32.88
49529;BME280;35423;37.320;-121.762;2022-08-01T10:19:46;99976.83;;;24.81;32.95
49529;BME280;35423;37.320;-121.762;2022-08-01T10:22:14;99977.13;;;24.75;32.84
49529;BME280;35423;37.320;-121.762;2022-08-01T10:24:40;99977.35;;;24.42;32.89
49529;BME280;35423;37.320;-121.762;2022-08-01T10:27:08;99976.10;;;24.89;32.87
49529;BME280;35423;37.320;-121.762;2022-08-01T10:29:39;99976.26;;;24.75;32.99
49529;BME280;35423;37.320;-121.762;2022-08-01T10:31:59;99977.63;;;25.01;32.98
49529;BME280;35423;37.320;-121.762;2022-08-01T10:34:26;99978.87;;;24.71;33.05
49529;BME280;35423;37.320;-121.762;2022-08-01T10:36:52;99979.38;;;24.72;33.08
49529;BME280;35423;37.320;-121.762;2022-08-01T10:39:17;99980.43;;;24.64;33.09
49529;BME280;35423;37.320;-121.762;2022-08-01T10:41:43;99986.15;;;24.59;33.17
49529;BME280;35423;37.320;-121.762;2022-08-01T10:44:10;99988.81;;;24.67;33.12
49529;BME280;35423;37.320;-121.762;2022-08-01T10:46:38;99990.71;;;24.60;33.22
49529;BME280;35423;37.320;-121.762;2022-08-01T10:49:12;99993.54;;;24.60;33.24
49529;BME280;35423;37.320;-121.762;2022-08-01T10:51:36;100000.19;;;24.69;33.15
49529;BME280;35423;37.320;-121.762;2022-08-01T10:54:05;100006.49;;;24.52;33.26
49529;BME280;35423;37.320;-121.762;2022-08-01T10:56:39;100012.39;;;24.49;33.33
49529;BME280;35423;37.320;-121.762;2022-08-01T10:59:02;100011.34;;;24.44;33.39
49529;BME280;35423;37.320;-121.762;2022-08-01T11:01:24;100016.53;;;24.44;33.40
49529;BME280;35423;37.320;-121.762;2022-08-01T11:03:57;100020.86;;;24.38;33.48
49529;BME280;35423;37.320;-121.762;2022-08-01T11:06:17;100026.37;;;24.05;33.33
49529;BME280;35423;37.320;-121.762;2022-08-01T11:08:43;100032.58;;;24.54;33.23
49529;BME280;35423;37.320;-121.762;2022-08-01T11:11:09;100035.07;;;24.44;33.40
49529;BME280;35423;37.320;-121.762;2022-08-01T11:18:32;100027.11;;;24.20;33.71
49529;BME280;35423;37.320;-121.762;2022-08-01T11:20:58;100024.27;;;24.09;33.89
49529;BME280;35423;37.320;-121.762;2022-08-01T11:23:27;100026.27;;;24.35;33.84
49529;BME280;35423;37.320;-121.762;2022-08-01T11:28:20;100029.39;;;24.42;34.06
49529;BME280;35423;37.320;-121.762;2022-08-01T11:30:44;100030.93;;;24.21;34.09
49529;BME280;35423;37.320;-121.762;2022-08-01T11:33:11;100031.42;;;23.88;34.18
49529;BME280;35423;37.320;-121.762;2022-08-01T11:35:40;100031.54;;;24.41;34.14
49529;BME280;35423;37.320;-121.762;2022-08-01T11:40:34;100034.68;;;24.03;34.34
49529;BME280;35423;37.320;-121.762;2022-08-01T11:47:56;100031.57;;;24.01;34.43
49529;BME280;35423;37.320;-121.762;2022-08-01T11:50:33;100034.03;;;24.17;34.50
49529;BME280;35423;37.320;-121.762;2022-08-01T11:52:57;100032.72;;;24.15;34.55
49529;BME280;35423;37.320;-121.762;2022-08-01T11:55:15;100031.64;;;24.14;34.55
49529;BME280;35423;37.320;-121.762;2022-08-01T11:57:43;100031.28;;;23.95;34.49
49529;BME280;35423;37.320;-121.762;2022-08-01T12:00:13;100030.45;;;23.95;34.50
49529;BME280;35423;37.320;-121.762;2022-08-01T12:02:36;100026.70;;;23.64;34.54
49529;BME280;35423;37.320;-121.762;2022-08-01T12:05:04;100028.73;;;24.18;34.51
49529;BME280;35423;37.320;-121.762;2022-08-01T12:07:32;100033.63;;;23.68;34.49
49529;BME280;35423;37.320;-121.762;2022-08-01T12:10:01;100033.31;;;23.95;34.49
49529;BME280;35423;37.320;-121.762;2022-08-01T12:12:26;100037.26;;;23.98;34.46
49529;BME280;35423;37.320;-121.762;2022-08-01T12:14:55;100038.07;;;23.96;34.48
49529;BME280;35423;37.320;-121.762;2022-08-01T12:19:55;100045.14;;;23.93;34.52
49529;BME280;35423;37.320;-121.762;2022-08-01T12:22:29;100043.86;;;24.11;34.59
49529;BME280;35423;37.320;-121.762;2022-08-01T12:24:58;100046.08;;;23.80;34.65
49529;BME280;35423;37.320;-121.762;2022-08-01T12:27:27;100044.88;;;23.66;34.76
49529;BME280;35423;37.320;-121.762;2022-08-01T12:29:50;100036.34;;;23.61;34.87
49529;BME280;35423;37.320;-121.762;2022-08-01T12:32:22;100034.15;;;23.62;34.86
49529;BME280;35423;37.320;-121.762;2022-08-01T12:34:46;100037.83;;;23.62;34.95
49529;BME280;35423;37.320;-121.762;2022-08-01T12:37:12;100044.19;;;23.59;34.94
49529;BME280;35423;37.320;-121.762;2022-08-01T12:39:39;100048.97;;;23.60;34.94
49529;BME280;35423;37.320;-121.762;2022-08-01T12:42:07;100045.71;;;23.89;34.92
49529;BME280;35423;37.320;-121.762;2022-08-01T12:44:31;100042.84;;;23.40;34.94
49529;BME280;35423;37.320;-121.762;2022-08-01T12:46:58;100044.33;;;23.85;35.03
49529;BME280;35423;37.320;-121.762;2022-08-01T12:49:30;100045.79;;;23.67;34.98
49529;BME280;35423;37.320;-121.762;2022-08-01T12:51:56;100045.35;;;23.87;35.00